Tamworth Airport
YSTW : rendu visible

Aérodrome :











RETROUVEZ-NOUS SUR...

 
LOGIN :

S'inscrire | Disclaimer

   EN    FR    IT 

 









Légende :    VFR   VFR Marginal   IFR   IFR Intensif   IFR Très Intensif
Visi : 
Plafond : 
>= 8 km
>= 3000ft
5 à 8 km
1000 à 3000 ft
1500m à 5 km
500 à 1000 ft
800 à 1500m
200 à 500 ft
< 800m
< 200 ft
Symboles :   Orages  Brouillard  Fortes neiges  Fortes précipitations  Vent > 20 kt






- Altitude de l'aérodrome : 1334 ft
- Code IATA : TMW


YSTW - Tamworth

DERNIER METAR :
  • 021100Z AUTO 00000KT 9999 // BKN037 05/02 Q1023

METARs EXPIRÉS :
  • 021030Z AUTO 27005KT 9999 // OVC034 06/02 Q1023 RF00.0/000.0
  • 021000Z AUTO 28005KT 9999 // OVC032 07/02 Q1023
  • 020930Z AUTO 27013KT 9999 // BKN029 08/03 Q1023 RF00.0/000.0
  • 020900Z AUTO 24019KT 9999 // NCD 08/03 Q1022
  • 020830Z AUTO 23015KT 9999 // SCT039 08/04 Q1022 RF00.0/000.0

TAF TAF YSTW
Valide du 02 à 06h jusqu'au 03 à 00h UTC


020515Z 0206/0300 28009KT 9999 BKN025
BECMG 0217/0219 30006KT 9999 BKN015
TEMPO 0215/0219 9999 BKN015
FIR YBBB / Océanie



MET'MAP, la Météo Aéronautique d'un coup d'oeil ! - Copyright ORBIFLY Décembre 2007 - Disclaimer

ORBIFLY MET'MAP TEAM :

Programmation & Développement : Alexandra Zaïnal
Sur une idée originale de : Baudouin d'Aumeries
Assistance à la programmation : Marc-Olivier Méhu
Soutien technique & logistique : Manuel Goepfert

Contact : metmap@orbifly.com




SOURCES & CREDITS :

   NOAA       Earth
Advisory